»·PEaware :: ANW757 LGAV-LPPT

ANW757 :: LGAV-LPPT

FLIGHT INFORMATION

Flight Status: Arrived
Operator:
Air Northwest (website)
More flights by this operator :: More flights under this callsign
Pilot: Lee W. (44)
Aircraft: AIRBUS A340-300
(A343)
More flights by this aircraft type
Origin: LGAV Eleftherios Venizelos Intl
Greece
Destination: LPPT Lisbon
Portugal
More flights between these airports :: More routes between these airports
Route: DCT ATV UN604 RUTOM UM601 NERAR UQ182 MALAV UM601 BCN UN975
File this flight plan on PilotEdge
Remarks:
Altitude:
(Current/Filed)
32,000ft
Speed:
(Current/Filed)
475kts
Departed: 20-Mar-11 08:50 AM
Arrived: 20-Mar-11 12:33 PM
Distance/Time
Traveled:
1549nm/3:43
Distance/Time
To Go:
Arrived

Flight Plot

Page will automatically refresh every two minutes.


Map Options




Map Legend


Flown Route
Filed Route
Departure Airport
Arrival Airport
Navaid (VOR, NDB)
Fix

Horizontal Profiles

Position Reports

Time Latitude Longitude Heading Altitude Ground
Speed
20-Mar-11 08:42 37.928621 23.941538 217 324ft 0kts
20-Mar-11 08:43 37.928621 23.941538 217 324ft 0kts
20-Mar-11 08:44 37.929577 23.942201 149 324ft 0kts
20-Mar-11 08:46 37.927061 23.943782 212 324ft 6kts
20-Mar-11 08:47 37.926440 23.943243 216 324ft 11kts
20-Mar-11 08:48 37.924895 23.944197 97 324ft 11kts
20-Mar-11 08:49 37.926315 23.945741 36 324ft 52kts
20-Mar-11 08:50 37.970452 23.975849 358 1410ft 240kts
20-Mar-11 08:51 37.981647 23.905882 241 3856ft 278kts
20-Mar-11 08:52 37.943309 23.818998 266 6343ft 284kts
20-Mar-11 08:53 37.944191 23.719099 276 8869ft 297kts
20-Mar-11 08:54 37.946939 23.610157 265 11376ft 297kts
20-Mar-11 08:55 37.949012 23.510202 269 13888ft 278kts
20-Mar-11 08:56 37.951246 23.410368 273 16403ft 290kts
20-Mar-11 08:57 37.953506 23.305832 274 18909ft 308kts
20-Mar-11 08:58 37.955788 23.194633 275 21424ft 323kts
20-Mar-11 08:59 37.958051 23.078795 276 23927ft 338kts
20-Mar-11 09:01 37.962514 22.829842 276 28941ft 371kts
20-Mar-11 09:02 37.964758 22.695002 276 31530ft 428kts
20-Mar-11 09:03 37.987337 22.533987 286 31998ft 474kts
20-Mar-11 09:04 38.013515 22.375884 279 31939ft 467kts
20-Mar-11 09:05 38.040887 22.208532 278 31940ft 499kts
20-Mar-11 09:06 38.068183 22.040728 280 31938ft 480kts
20-Mar-11 09:07 38.095075 21.874278 282 31939ft 485kts
20-Mar-11 09:08 38.122079 21.705390 282 31939ft 490kts
20-Mar-11 09:09 38.149026 21.535114 282 31939ft 492kts
20-Mar-11 09:10 38.175127 21.367424 281 31940ft 493kts
20-Mar-11 09:11 38.201647 21.196446 281 31940ft 493kts
20-Mar-11 09:12 38.227955 21.025155 281 31940ft 493kts
20-Mar-11 09:13 38.253816 20.855083 281 31997ft 487kts
20-Mar-11 09:14 38.279227 20.686349 279 31999ft 489kts
20-Mar-11 09:15 38.304616 20.515676 279 31939ft 486kts
20-Mar-11 09:16 38.328971 20.349163 280 31939ft 478kts
20-Mar-11 09:17 38.353338 20.182169 280 31938ft 478kts
20-Mar-11 09:18 38.377424 20.015386 281 31937ft 479kts
20-Mar-11 09:19 38.401319 19.848158 281 31937ft 480kts
20-Mar-11 09:20 38.424957 19.680939 281 31936ft 480kts
20-Mar-11 09:21 38.448393 19.513351 281 31936ft 480kts
20-Mar-11 09:22 38.471264 19.346737 281 31938ft 481kts
20-Mar-11 09:23 38.494235 19.178829 281 31937ft 481kts
20-Mar-11 09:24 38.516929 19.011101 281 31937ft 481kts
20-Mar-11 09:25 38.558600 18.849134 290 31937ft 479kts
20-Mar-11 09:26 38.600486 18.687669 289 31936ft 479kts
20-Mar-11 09:27 38.641482 18.526395 289 31936ft 479kts
20-Mar-11 09:28 38.682255 18.364235 288 31940ft 480kts
20-Mar-11 09:29 38.722977 18.201907 288 31940ft 480kts
20-Mar-11 09:30 38.763528 18.039289 288 31939ft 480kts
20-Mar-11 09:31 38.803267 17.878635 290 32027ft 465kts
20-Mar-11 09:32 38.841826 17.722002 292 32027ft 457kts
20-Mar-11 09:33 38.879550 17.567637 294 32027ft 454kts
20-Mar-11 09:34 38.916774 17.413536 294 32030ft 454kts
20-Mar-11 09:35 38.954046 17.258996 294 32028ft 454kts
20-Mar-11 09:36 38.991170 17.104054 294 32027ft 454kts
20-Mar-11 09:37 39.013305 16.941942 287 32027ft 463kts
20-Mar-11 09:38 39.032979 16.778259 287 32026ft 463kts
20-Mar-11 09:39 39.052414 16.614437 287 32025ft 463kts
20-Mar-11 09:40 39.071459 16.451745 286 32026ft 464kts
20-Mar-11 09:41 39.090028 16.291766 280 32023ft 435kts
20-Mar-11 09:42 39.108031 16.132710 275 32027ft 468kts
20-Mar-11 09:43 39.127221 15.962110 275 32028ft 496kts
20-Mar-11 09:44 39.147192 15.782549 277 32031ft 511kts
20-Mar-11 09:45 39.167096 15.601473 278 32031ft 509kts
20-Mar-11 09:46 39.186220 15.423444 276 32029ft 500kts
20-Mar-11 09:47 39.204962 15.247088 276 32029ft 492kts
20-Mar-11 09:49 39.237814 14.932232 277 32027ft 480kts
20-Mar-11 09:51 39.272470 14.590869 277 32026ft 480kts
20-Mar-11 09:52 39.289208 14.420499 277 32028ft 481kts
20-Mar-11 09:53 39.307336 14.249382 286 32006ft 480kts
20-Mar-11 09:54 39.349718 14.085989 287 32027ft 481kts
20-Mar-11 09:55 39.390797 13.921530 287 32027ft 481kts
20-Mar-11 09:56 39.431416 13.757339 287 32026ft 481kts
20-Mar-11 09:57 39.471511 13.592481 287 32026ft 481kts
20-Mar-11 09:58 39.511191 13.427586 286 32028ft 481kts
20-Mar-11 09:59 39.550782 13.262429 287 32027ft 481kts
20-Mar-11 10:01 39.629507 12.931254 287 32027ft 481kts
20-Mar-11 10:02 39.668425 12.766163 287 32027ft 481kts
20-Mar-11 10:03 39.707259 12.600231 287 32026ft 481kts
20-Mar-11 10:04 39.745676 12.434311 286 32028ft 481kts
20-Mar-11 10:05 39.783968 12.268006 286 32028ft 481kts
20-Mar-11 10:06 39.822129 12.101276 286 32027ft 481kts
20-Mar-11 10:07 39.860004 11.934572 286 32027ft 481kts
20-Mar-11 10:08 39.897644 11.767721 286 32026ft 481kts
20-Mar-11 10:09 39.935065 11.600618 286 32026ft 481kts
20-Mar-11 10:10 39.971949 11.434028 285 32028ft 481kts
20-Mar-11 10:11 40.008835 11.266658 285 32028ft 481kts
20-Mar-11 10:12 40.045509 11.099198 285 32027ft 481kts
20-Mar-11 10:13 40.081982 10.931372 285 32027ft 481kts
20-Mar-11 10:14 40.118245 10.763217 285 32026ft 481kts
20-Mar-11 10:15 40.154225 10.595066 285 32026ft 481kts
20-Mar-11 10:16 40.164118 10.422983 269 32030ft 481kts
20-Mar-11 10:17 40.162447 10.248068 269 32028ft 481kts
20-Mar-11 10:18 40.160691 10.074162 267 32201ft 483kts
20-Mar-11 10:19 40.158331 9.891432 267 32209ft 521kts
20-Mar-11 10:20 40.155692 9.700063 270 32210ft 528kts
20-Mar-11 10:21 40.152795 9.510107 272 32210ft 519kts
20-Mar-11 10:22 40.149479 9.325097 273 32205ft 512kts
20-Mar-11 10:23 40.146044 9.140009 273 32205ft 506kts
20-Mar-11 10:24 40.142409 8.956261 272 32137ft 520kts
20-Mar-11 10:25 40.138285 8.767089 265 32119ft 505kts
20-Mar-11 10:26 40.134041 8.588742 266 32151ft 488kts
20-Mar-11 10:27 40.129263 8.406453 266 32177ft 522kts
20-Mar-11 10:28 40.124186 8.214943 269 32177ft 530kts
20-Mar-11 10:29 40.118797 8.023131 270 32178ft 527kts
20-Mar-11 10:30 40.113120 7.832493 271 32179ft 523kts
20-Mar-11 10:31 40.107180 7.643596 271 32179ft 519kts
20-Mar-11 10:32 40.101010 7.457583 271 32177ft 518kts
20-Mar-11 10:33 40.094341 7.270311 271 32176ft 517kts
20-Mar-11 10:34 40.087546 7.083221 271 32177ft 517kts
20-Mar-11 10:35 40.080425 6.895593 271 32178ft 517kts
20-Mar-11 10:36 40.073017 6.708372 271 32179ft 517kts
20-Mar-11 10:37 40.065309 6.521226 271 32180ft 517kts
20-Mar-11 10:38 40.057139 6.334693 271 32176ft 517kts
20-Mar-11 10:39 40.048805 6.147086 271 32177ft 517kts
20-Mar-11 10:40 40.040182 5.959820 271 32178ft 517kts
20-Mar-11 10:41 40.031270 5.772847 271 32179ft 517kts
20-Mar-11 10:42 40.022056 5.585906 271 32180ft 517kts
20-Mar-11 10:43 40.012350 5.399068 270 32176ft 517kts
20-Mar-11 10:44 40.002549 5.212320 270 32177ft 517kts
20-Mar-11 10:45 39.992433 5.025488 270 32178ft 517kts
20-Mar-11 10:46 39.981952 4.838304 271 32237ft 517kts
20-Mar-11 10:47 39.954179 4.653615 261 32241ft 525kts
20-Mar-11 10:48 39.916572 4.471167 261 32239ft 523kts
20-Mar-11 10:49 39.878354 4.288032 262 32238ft 522kts
20-Mar-11 10:50 39.832438 4.108236 257 32240ft 528kts
20-Mar-11 10:51 39.780909 3.929133 257 32241ft 527kts
20-Mar-11 10:52 39.729309 3.750885 257 32242ft 527kts
20-Mar-11 10:53 39.677520 3.573193 257 32244ft 527kts
20-Mar-11 10:54 39.625195 3.395220 254 32272ft 544kts
20-Mar-11 10:55 39.570263 3.209406 251 32272ft 556kts
20-Mar-11 10:56 39.514529 3.022167 249 32273ft 557kts
20-Mar-11 10:57 39.458641 2.835682 248 32275ft 555kts
20-Mar-11 10:58 39.420055 2.675082 257 32288ft 555kts
20-Mar-11 10:59 39.383688 2.481483 256 32279ft 554kts
20-Mar-11 11:00 39.347463 2.290741 256 32266ft 553kts
20-Mar-11 11:01 39.310988 2.099408 257 32267ft 551kts
20-Mar-11 11:02 39.274168 1.907975 257 32292ft 546kts
20-Mar-11 11:03 39.237931 1.721441 256 32299ft 529kts
20-Mar-11 11:04 39.202232 1.539408 255 32299ft 520kts
20-Mar-11 11:05 39.166647 1.360435 255 32295ft 515kts
20-Mar-11 11:06 39.131173 1.182671 255 32295ft 512kts
20-Mar-11 11:07 39.095551 1.005664 255 32296ft 511kts
20-Mar-11 11:08 39.059659 0.828825 255 32296ft 510kts
20-Mar-11 11:09 39.023589 0.652594 255 32297ft 509kts
20-Mar-11 11:10 38.987347 0.476998 255 32297ft 509kts
20-Mar-11 11:11 38.950741 0.301995 254 32295ft 509kts
20-Mar-11 11:12 38.913996 0.126855 254 32295ft 509kts
20-Mar-11 11:13 38.876584 -0.049981 254 32297ft 517kts
20-Mar-11 11:14 38.838540 -0.228370 255 32298ft 521kts
20-Mar-11 11:15 38.799791 -0.408572 255 32271ft 528kts
20-Mar-11 11:16 38.760314 -0.589826 254 32265ft 532kts
20-Mar-11 11:17 38.720283 -0.772914 254 32267ft 535kts
20-Mar-11 11:18 38.680021 -0.955588 254 32269ft 536kts
20-Mar-11 11:19 38.639265 -1.138997 254 32271ft 536kts
20-Mar-11 11:20 38.598058 -1.322923 254 32273ft 537kts
20-Mar-11 11:21 38.557025 -1.504780 252 32183ft 529kts
20-Mar-11 11:22 38.516619 -1.681334 250 32175ft 519kts
20-Mar-11 11:23 38.476339 -1.856900 250 32175ft 513kts
20-Mar-11 11:24 38.436070 -2.031110 250 32175ft 510kts
20-Mar-11 11:25 38.395829 -2.203912 250 32175ft 508kts
20-Mar-11 11:26 38.355622 -2.374455 248 32179ft 507kts
20-Mar-11 11:27 38.312146 -2.542779 248 32182ft 506kts
20-Mar-11 11:28 38.267910 -2.713139 248 32178ft 506kts
20-Mar-11 11:29 38.223838 -2.882430 248 32179ft 506kts
20-Mar-11 11:30 38.179352 -3.052166 248 32179ft 505kts
20-Mar-11 11:31 38.135021 -3.220289 247 32121ft 500kts
20-Mar-11 11:32 38.090202 -3.388990 246 32121ft 494kts
20-Mar-11 11:33 38.046897 -3.550937 245 32119ft 489kts
20-Mar-11 11:34 38.002960 -3.713589 245 32117ft 487kts
20-Mar-11 11:35 37.959242 -3.875077 245 32117ft 485kts
20-Mar-11 11:36 37.915168 -4.036877 245 32117ft 485kts
20-Mar-11 11:37 37.871076 -4.197581 247 32086ft 483kts
20-Mar-11 11:38 37.826840 -4.358053 248 32086ft 485kts
20-Mar-11 11:39 37.782185 -4.519032 249 32086ft 486kts
20-Mar-11 11:40 37.737544 -4.678284 248 32086ft 487kts
20-Mar-11 11:41 37.692158 -4.839898 249 32086ft 488kts
20-Mar-11 11:42 37.646739 -5.000645 249 32086ft 488kts
20-Mar-11 11:43 37.600907 -5.161873 249 32086ft 488kts
20-Mar-11 11:44 37.554868 -5.322861 249 32085ft 488kts
20-Mar-11 11:45 37.508722 -5.483225 249 32084ft 483kts
20-Mar-11 11:46 37.463320 -5.639482 249 32086ft 480kts
20-Mar-11 11:47 37.441762 -5.802394 282 32066ft 481kts
20-Mar-11 11:48 37.509735 -5.946094 299 32103ft 484kts
20-Mar-11 11:49 37.576031 -6.094017 298 32086ft 489kts
20-Mar-11 11:50 37.643344 -6.245588 298 32087ft 501kts
20-Mar-11 11:51 37.710736 -6.397859 298 32086ft 497kts
20-Mar-11 11:52 37.774183 -6.542008 298 30547ft 458kts
20-Mar-11 11:53 37.832390 -6.675225 298 27909ft 413kts
20-Mar-11 11:54 37.884712 -6.795037 298 25375ft 374kts
20-Mar-11 11:55 37.932634 -6.905063 297 22815ft 343kts
20-Mar-11 11:56 37.976853 -7.007262 299 20267ft 322kts
20-Mar-11 11:57 38.018495 -7.103362 299 17774ft 305kts
20-Mar-11 11:58 38.058141 -7.195363 298 15285ft 292kts
20-Mar-11 11:59 38.096170 -7.283950 298 12794ft 283kts
20-Mar-11 12:01 38.179013 -7.477475 299 12465ft 361kts
20-Mar-11 12:02 38.226170 -7.588638 299 12459ft 359kts
20-Mar-11 12:03 38.273254 -7.699604 299 12459ft 358kts
20-Mar-11 12:04 38.326963 -7.826634 299 12459ft 415kts
20-Mar-11 12:05 38.381281 -7.955630 299 12459ft 415kts
20-Mar-11 12:07 38.489949 -8.215293 299 12459ft 415kts
20-Mar-11 12:09 38.588975 -8.453807 299 12453ft 416kts
20-Mar-11 12:13 38.649231 -8.869311 255 7353ft 272kts
20-Mar-11 12:14 38.629739 -8.961290 255 4862ft 266kts
20-Mar-11 12:15 38.611520 -9.047558 255 3445ft 216kts
20-Mar-11 12:16 38.598702 -9.107601 255 3451ft 207kts
20-Mar-11 12:17 38.609079 -9.179274 323 3434ft 190kts
20-Mar-11 12:18 38.641938 -9.214442 301 2968ft 184kts
20-Mar-11 12:19 38.617843 -9.245079 171 2651ft 185kts
20-Mar-11 12:20 38.590275 -9.208295 56 2597ft 185kts
20-Mar-11 12:21 38.638541 -9.187478 16 2619ft 184kts
20-Mar-11 12:22 38.673495 -9.144623 52 1906ft 164kts
20-Mar-11 12:23 38.705072 -9.121135 330 1926ft 166kts
20-Mar-11 12:24 38.733322 -9.164846 310 999ft 146kts
20-Mar-11 12:25 38.762374 -9.149731 16 1258ft 135kts
20-Mar-11 12:26 38.776146 -9.195143 266 2976ft 190kts
20-Mar-11 12:27 38.755437 -9.254610 211 2842ft 191kts
20-Mar-11 12:28 38.706281 -9.254447 130 2850ft 189kts
20-Mar-11 12:29 38.698679 -9.200323 83 2726ft 143kts
20-Mar-11 12:30 38.718523 -9.168377 14 1397ft 135kts
20-Mar-11 12:31 38.753490 -9.150882 23 693ft 135kts
20-Mar-11 12:32 38.776069 -9.138813 23 390ft 33kts
20-Mar-11 12:33 38.782838 -9.134269 158 390ft 20kts
20-Mar-11 12:34 38.776702 -9.132545 166 390ft 29kts
20-Mar-11 12:35 38.773562 -9.131486 111 390ft 0kts
20-Mar-11 12:36 38.773562 -9.131486 111 390ft 0kts
20-Mar-11 12:37 38.773562 -9.131486 111 390ft 0kts
20-Mar-11 12:38 38.773562 -9.131486 111 390ft 0kts
20-Mar-11 12:39 38.773562 -9.131486 111 390ft 0kts
20-Mar-11 12:40 38.773562 -9.131486 111 390ft 0kts
20-Mar-11 12:41 38.773562 -9.131486 111 390ft 0kts
20-Mar-11 12:42 38.773562 -9.131486 111 390ft 0kts
20-Mar-11 12:43 38.773562 -9.131486 111 390ft 0kts
20-Mar-11 12:44 38.770771 -9.137273 359 374ft 0kts

Navigation Log

Ident Type
Flight plan parsing failed, navigation log unavailable